Tucson, AZ

8:15 AM MST on December 25, 2014 (GMT -0700)
UA WRRC WEATHER | Change Station
CLOSE
Current Station
Personal Weather Station
Location: Tucson, AZ
Elevation: 2431 ft
Nearby Weather Stations

Elev 2431 ft 32.23 °N, 110.94 °W | Updated 11 minutes ago

Partly Cloudy
Partly Cloudy
56.2 °F
Feels Like 56.2 °F
N
4.0
Wind Variable Wind from ENE
Gusts 9.0 mph

Today
High -- | Low -- °F
--% Chance of Precip.
Yesterday
High -- | Low -- °F
Precip. -- in
7:22 AM 5:25 PM
Waxing Crescent, 17% visible
Pressure 29.72 in
Visibility 10.0 miles
Clouds Clear
Dew Point 18 °F
Humidity 22%
Rainfall 0.00 in
Snow Depth Not available.
UV 0 out of 12
Pollen 5.70 out of 12
Air Quality Not available.
Flu Activity Not available.
METAR KDMA 251458Z AUTO 07006KT 10SM CLR 09/M05 A2975 RMK AO2 SLP062 T00881046 55006 $

More Conditions Fewer Conditions

Pressure 29.72 in
Visibility 10.0 miles
Clouds Clear
Dew Point 18 °F
Humidity 22%
Rainfall 0.00 in
Snow Depth Not available.
UV 0 out of 12
Pollen 5.70 out of 12
Air Quality Not available.
Flu Activity Not available.
METAR KDMA 251458Z AUTO 07006KT 10SM CLR 09/M05 A2975 RMK AO2 SLP062 T00881046 55006 $

More Conditions Fewer Conditions

10-Day Weather Forecast

Almanac

Astronomy

Dec. 25, 2014 Rise Set
Actual Time
Civil Twilight
Nautical Twilight
Astronomical Twilight
Moon
Length of Visible Light
Length of Day
Tomorrow will be .
, % of the Moon is Illuminated

Today's Extremes

State Highs State Lows

Community

WunderPhotos

Upload Photos

1,780,298 photos uploaded!

WunderBlogs® & News

Nearby

Air Quality

  Air Quality AQ Index Pollutant
Not available.

Snow Depth

Station Depth Elevation

Earthquake Activity

City Distance Mag. Time & Date
Minimum magnitude displayed is 2.5.

Coastal Water Temperatures

Place Temperature

Nearby Weather Stations